Time;durP1;ratioP1;P1;durP2;ratioP2;P2;SDS_P1;SDS_P2;PMS_P1;PMS_P2;Temp;Humidity;BMP_temperature;BMP_pressure;BME280_temperature;BME280_humidity;BME280_pressure;Samples;Min_cycle;Max_cycle;Signal;HPM_P1;HPM_P2
2021/03/31 00:01:40;;;;;;;9.53;4.97;;;;;;;;;;5055062;28;20407;-70
2021/03/31 00:04:07;;;;;;;14.18;5.35;;;;;;;;;;5045171;28;20502;-70
2021/03/31 00:06:33;;;;;;;9.73;5.47;;;;;;;;;;5064664;28;20832;-70
2021/03/31 00:09:00;;;;;;;9.63;5.00;;;;;;;;;;5036811;28;20402;-70
2021/03/31 00:11:26;;;;;;;8.93;5.10;;;;;;;;;;5054628;28;20546;-70
2021/03/31 00:13:52;;;;;;;8.05;5.00;;;;;;;;;;5037261;28;20462;-70
2021/03/31 00:16:19;;;;;;;9.45;5.43;;;;;;;;;;5054827;28;20895;-70
2021/03/31 00:18:45;;;;;;;8.30;5.20;;;;;;;;;;5054727;28;20433;-70
2021/03/31 00:21:12;;;;;;;10.05;5.35;;;19.10;65.70;;;;;;5036941;28;20476;-67
2021/03/31 00:23:38;;;;;;;7.50;5.00;;;;;;;;;;5055913;28;20396;-70
2021/03/31 00:26:04;;;;;;;9.33;5.33;;;;;;;;;;5054376;28;20404;-70
2021/03/31 00:28:31;;;;;;;8.95;5.13;;;;;;;;;;5054543;28;20401;-70
2021/03/31 00:30:57;;;;;;;9.18;5.18;;;;;;;;;;5053987;28;20393;-70
2021/03/31 00:33:23;;;;;;;6.63;4.75;;;;;;;;;;5055106;28;20416;-70
2021/03/31 00:35:49;;;;;;;8.30;4.72;;;;;;;;;;5054197;28;20880;-70
2021/03/31 00:38:17;;;;;;;7.63;4.95;;;;;;;;;;5053977;28;20400;-70
2021/03/31 00:40:45;;;;;;;7.78;4.78;;;;;;;;;;5055819;28;20765;-70
2021/03/31 00:43:11;;;;;;;7.70;4.68;;;;;;;;;;5054366;28;20437;-70
2021/03/31 00:45:38;;;;;;;8.32;5.10;;;;;;;;;;5053892;28;20877;-69
2021/03/31 00:48:04;;;;;;;8.47;4.83;;;;;;;;;;5036453;28;20393;-70
2021/03/31 00:50:31;;;;;;;9.65;4.88;;;;;;;;;;5053623;28;20722;-70
2021/03/31 00:52:58;;;;;;;6.47;4.57;;;;;;;;;;5052735;28;20827;-70
2021/03/31 00:55:26;;;;;;;6.90;4.90;;;;;;;;;;5052768;28;20440;-70
2021/03/31 00:57:53;;;;;;;8.33;5.20;;;;;;;;;;5052290;28;20448;-69
2021/03/31 01:00:20;;;;;;;7.10;4.90;;;;;;;;;;5049288;28;20439;-67
2021/03/31 01:05:23;;;;;;;9.10;5.03;;;;;;;;;;5027416;28;20423;-74
2021/03/31 01:07:50;;;;;;;7.35;4.63;;;;;;;;;;5014974;28;20422;-74
2021/03/31 01:10:17;;;;;;;7.47;4.60;;;;;;;;;;5033813;28;20395;-75
2021/03/31 01:12:53;;;;;;;7.53;4.30;;;;;;;;;;5033442;28;20967;-74
2021/03/31 01:15:23;;;;;;;10.32;4.88;;;;;;;;;;5015067;28;20782;-74
2021/03/31 01:17:51;;;;;;;8.10;4.80;;;;;;;;;;5033597;28;20449;-75
2021/03/31 01:20:33;;;;;;;8.35;4.82;;;;;;;;;;5015214;28;20476;-75
2021/03/31 01:23:14;;;;;;;9.18;4.93;;;;;;;;;;5033856;28;20422;-73
2021/03/31 01:25:43;;;;;;;8.13;4.85;;;;;;;;;;5033330;28;20406;-74
2021/03/31 01:28:28;;;;;;;6.85;4.70;;;;;;;;;;5015665;28;20399;-75
2021/03/31 01:31:00;;;;;;;7.23;4.27;;;;;;;;;;5020427;28;20440;-75
2021/03/31 01:33:44;;;;;;;9.30;4.43;;;;;;;;;;5033013;28;20399;-75
2021/03/31 01:36:12;;;;;;;7.68;4.30;;;;;;;;;;5021728;28;20862;-74
2021/03/31 01:38:41;;;;;;;7.05;4.50;;;;;;;;;;5031735;28;20405;-74
2021/03/31 01:41:08;;;;;;;8.05;4.57;;;;;;;;;;5027239;28;20416;-75
2021/03/31 01:43:34;;;;;;;7.80;4.55;;;;;;;;;;5015366;28;20406;-75
2021/03/31 01:46:02;;;;;;;7.68;4.50;;;;;;;;;;5031603;28;20395;-74
2021/03/31 01:48:31;;;;;;;7.43;4.23;;;;;;;;;;5014966;28;20467;-75
2021/03/31 01:50:59;;;;;;;6.80;4.55;;;;;;;;;;5015072;28;20422;-74
2021/03/31 01:53:26;;;;;;;7.15;4.30;;;;;;;;;;5029540;28;20391;-74
2021/03/31 01:55:53;;;;;;;6.63;4.50;;;;;;;;;;5015066;28;20431;-74
2021/03/31 01:58:20;;;;;;;6.68;4.28;;;;;;;;;;5017458;28;20405;-74
2021/03/31 02:00:47;;;;;;;7.38;4.25;;;;;;;;;;5027303;28;20418;-71
2021/03/31 02:03:15;;;;;;;8.15;4.35;;;;;;;;;;5014457;28;20422;-72
2021/03/31 02:05:41;;;;;;;6.32;3.78;;;;;;;;;;5032726;28;20399;-72
2021/03/31 02:08:08;;;;;;;6.53;4.05;;;;;;;;;;5032465;28;20398;-72
2021/03/31 02:10:35;;;;;;;8.38;4.60;;;;;;;;;;5032807;28;20870;-72
2021/03/31 02:13:02;;;;;;;7.32;4.28;;;;;;;;;;5030848;28;20465;-72
2021/03/31 02:15:29;;;;;;;8.90;4.80;;;;;;;;;;5021146;28;20506;-73
2021/03/31 02:17:56;;;;;;;8.10;4.82;;;;;;;;;;5031687;28;20757;-72
2021/03/31 02:20:22;;;;;;;8.02;4.65;;;;;;;;;;5032534;28;20450;-72
2021/03/31 02:22:49;;;;;;;9.43;4.70;;;;;;;;;;5032722;28;20874;-72
2021/03/31 02:25:16;;;;;;;7.68;4.68;;;;;;;;;;5032245;28;20422;-72
2021/03/31 02:27:44;;;;;;;8.82;4.32;;;;;;;;;;5032660;28;20866;-75
2021/03/31 02:30:11;;;;;;;6.63;4.45;;;;;;;;;;5032102;28;20402;-74
2021/03/31 02:32:38;;;;;;;9.73;4.85;;;;;;;;;;5025010;28;20464;-75
2021/03/31 02:35:06;;;;;;;7.38;4.25;;;;;;;;;;5032385;28;20395;-72
2021/03/31 02:37:32;;;;;;;9.90;3.95;;;;;;;;;;5014338;28;20439;-75
2021/03/31 02:39:59;;;;;;;6.43;3.72;;;;;;;;;;5012944;28;20484;-73
2021/03/31 02:42:26;;;;;;;7.35;3.85;;;;;;;;;;5014650;28;20498;-73
2021/03/31 02:44:54;;;;;;;7.63;3.72;;;;;;;;;;5018004;28;20739;-72
2021/03/31 02:47:22;;;;;;;5.27;3.73;;;;;;;;;;5025928;28;20457;-70
2021/03/31 02:49:49;;;;;;;7.30;3.60;;;;;;;;;;5032201;28;20399;-70
2021/03/31 02:52:17;;;;;;;6.32;3.72;;;;;;;;;;5031987;28;20394;-70
2021/03/31 02:54:44;;;;;;;6.35;3.65;;;;;;;;;;5031495;28;20785;-70
2021/03/31 02:57:10;;;;;;;7.80;3.50;;;;;;;;;;5032117;28;20399;-70
2021/03/31 02:59:39;;;;;;;6.50;3.73;;;;;;;;;;5013926;28;20484;-70
2021/03/31 03:02:07;;;;;;;7.80;4.23;;;;;;;;;;5032024;28;20438;-70
2021/03/31 03:04:33;;;;;;;5.25;3.60;;;;;;;;;;5034212;28;20884;-73
2021/03/31 03:06:59;;;;;;;6.97;3.90;;;;;;;;;;5031956;28;20498;-73
2021/03/31 03:09:26;;;;;;;5.88;3.85;;;;;;;;;;5031539;28;20748;-73
2021/03/31 03:11:52;;;;;;;6.18;3.67;;;;;;;;;;5031854;28;20881;-73
2021/03/31 03:14:19;;;;;;;8.32;3.90;;;;;;;;;;5031866;28;20400;-73
2021/03/31 03:16:45;;;;;;;6.63;3.90;;;;;;;;;;5034122;28;20474;-73
2021/03/31 03:19:13;;;;;;;8.40;4.18;;;;;;;;;;5018190;28;21005;-73
2021/03/31 03:21:40;;;;;;;7.20;4.10;;;;;;;;;;5035648;28;20419;-73
2021/03/31 03:24:07;;;;;;;10.15;4.10;;;;;;;;;;5035854;28;20401;-71
2021/03/31 03:26:35;;;;;;;7.63;3.75;;;;;;;;;;5034375;28;20391;-73
2021/03/31 03:29:01;;;;;;;6.35;4.13;;;;;;;;;;5023619;28;20395;-73
2021/03/31 03:31:28;;;;;;;7.03;4.10;;;;;;;;;;5017822;28;20403;-70
2021/03/31 03:33:54;;;;;;;7.93;4.27;;;;;;;;;;5035264;28;20399;-70
2021/03/31 03:36:21;;;;;;;6.72;3.67;;;;;;;;;;5017890;28;20406;-70
2021/03/31 03:38:48;;;;;;;7.63;3.90;;;;;;;;;;5035315;28;20543;-70
2021/03/31 03:41:14;;;;;;;5.77;3.37;;;;;;;;;;5017657;28;20410;-70
2021/03/31 03:43:42;;;;;;;6.80;3.75;;;;;;;;;;5035065;28;20481;-70
2021/03/31 03:46:09;;;;;;;5.23;3.20;;;;;;;;;;5035524;28;20483;-70
2021/03/31 03:48:35;;;;;;;5.72;3.80;;;;;;;;;;5035270;28;20398;-73
2021/03/31 03:51:04;;;;;;;7.88;3.90;;;;;;;;;;5035105;28;20929;-71
2021/03/31 03:53:31;;;;;;;7.40;3.70;;;;;;;;;;5023554;28;20404;-72
2021/03/31 03:55:59;;;;;;;6.18;3.10;;;;;;;;;;5033116;28;20415;-73
2021/03/31 03:58:26;;;;;;;6.88;3.42;;;;;;;;;;5035230;28;20403;-73
2021/03/31 04:00:52;;;;;;;7.07;3.80;;;;;;;;;;5034917;28;20501;-73
2021/03/31 04:03:18;;;;;;;5.70;3.10;;;;;;;;;;5034577;28;20419;-73
2021/03/31 04:05:44;;;;;;;8.02;3.45;;;;;;;;;;5034952;28;20829;-73
2021/03/31 04:08:10;;;;;;;6.15;3.78;;;;;;;;;;5034730;28;20445;-72
2021/03/31 04:10:39;;;;;;;7.07;3.83;;;;;;;;;;5035130;28;20391;-73
2021/03/31 04:13:06;;;;;;;7.63;3.77;;;;;;;;;;5032896;28;20883;-73
2021/03/31 04:15:32;;;;;;;6.45;4.00;;;;;;;;;;5034882;28;20407;-73
2021/03/31 04:18:00;;;;;;;7.13;4.07;;;;;;;;;;5034230;28;20402;-73
2021/03/31 04:20:27;;;;;;;5.78;3.33;;;;;;;;;;5034711;28;20415;-70
2021/03/31 04:22:53;;;;;;;6.17;3.47;;;;;;;;;;5026400;28;20391;-70
2021/03/31 04:25:20;;;;;;;6.78;3.60;;;;;;;;;;5013259;28;20409;-70
2021/03/31 04:27:50;;;;;;;6.05;3.70;;;;;;;;;;5028282;28;20882;-73
2021/03/31 04:30:16;;;;;;;5.90;3.72;;;;;;;;;;5034178;28;20509;-73
2021/03/31 04:32:45;;;;;;;5.22;3.42;;;;;;;;;;5022920;28;20399;-73
2021/03/31 04:35:11;;;;;;;5.53;3.40;;;;;;;;;;5023272;28;20453;-73
2021/03/31 04:37:39;;;;;;;6.22;3.78;;;;;;;;;;5017111;28;20402;-73
2021/03/31 04:40:06;;;;;;;7.05;3.88;;;;;;;;;;5033991;28;20510;-73
2021/03/31 04:42:32;;;;;;;6.90;3.85;;;;;;;;;;5017069;28;20475;-73
2021/03/31 04:44:59;;;;;;;6.32;3.88;;;;;;;;;;5034444;28;20413;-71
2021/03/31 04:47:25;;;;;;;6.70;3.60;;;;;;;;;;5033410;28;20407;-70
2021/03/31 04:49:51;;;;;;;8.82;4.20;;;;;;;;;;5034490;28;20399;-73
2021/03/31 04:52:17;;;;;;;6.70;3.97;;;;;;;;;;5033944;28;20403;-72
2021/03/31 04:54:44;;;;;;;6.07;3.67;;;;;;;;;;5034111;28;20965;-70
2021/03/31 04:57:10;;;;;;;5.95;3.08;;;;;;;;;;5022884;28;20744;-72
2021/03/31 04:59:36;;;;;;;5.20;3.50;;;;;;;;;;5016064;28;20415;-72
2021/03/31 05:02:03;;;;;;;7.25;3.38;;;;;;;;;;5033801;28;20808;-72
2021/03/31 05:04:30;;;;;;;8.18;3.40;;;;;;;;;;5038214;28;20936;-72
2021/03/31 05:06:56;;;;;;;6.72;3.13;;;;;;;;;;5034116;28;20754;-73
2021/03/31 05:09:22;;;;;;;7.63;3.47;;;;;;;;;;5022876;28;20486;-72
2021/03/31 05:11:48;;;;;;;6.00;3.40;;;;;;;;;;5019391;28;20496;-73
2021/03/31 05:14:14;;;;;;;6.18;3.30;;;;;;;;;;5033691;28;20402;-72
2021/03/31 05:16:40;;;;;;;6.55;3.40;;;;;;;;;;5019718;28;20447;-73
2021/03/31 05:19:07;;;;;;;7.00;3.40;;;;;;;;;;5030393;28;20406;-72
2021/03/31 05:21:34;;;;;;;5.18;3.28;;;;;;;;;;5031500;28;20405;-72
2021/03/31 05:24:00;;;;;;;5.25;2.95;;;;;;;;;;5033391;28;20407;-72
2021/03/31 05:26:26;;;;;;;5.20;2.95;;;;;;;;;;5033918;28;20399;-72
2021/03/31 05:28:52;;;;;;;5.43;3.40;;;;;;;;;;5033796;28;20391;-72
2021/03/31 05:31:18;;;;;;;7.47;3.10;;;;;;;;;;5037058;28;20403;-72
2021/03/31 05:33:45;;;;;;;7.65;3.65;;;;;;;;;;5026322;28;20909;-72
2021/03/31 05:36:12;;;;;;;7.38;3.40;;;;;;;;;;5033438;28;20402;-72
2021/03/31 05:38:38;;;;;;;7.87;3.10;;;;;;;;;;5031595;28;20415;-72
2021/03/31 05:41:04;;;;;;;5.97;3.38;;;;;;;;;;5035137;28;20506;-72
2021/03/31 05:43:31;;;;;;;6.85;3.30;;;;;;;;;;5034955;28;20409;-72
2021/03/31 05:45:58;;;;;;;5.80;3.55;;;;;;;;;;5031001;28;20396;-72
2021/03/31 05:48:25;;;;;;;6.38;2.75;;;;;;;;;;5033190;28;20403;-72
2021/03/31 05:50:51;;;;;;;6.80;3.70;;;;;;;;;;5015134;28;20750;-73
2021/03/31 05:53:18;;;;;;;4.13;2.95;;;;;;;;;;5032464;28;20413;-73
2021/03/31 05:55:44;;;;;;;6.50;3.40;;;;;;;;;;5031495;28;20407;-72
2021/03/31 05:58:11;;;;;;;6.90;3.47;;;;;;;;;;5044750;28;20403;-72
2021/03/31 06:00:37;;;;;;;8.27;3.30;;;;;;;;;;5028966;28;20418;-72
2021/03/31 06:03:04;;;;;;;6.13;3.45;;;;;;;;;;5027132;28;20482;-72
2021/03/31 06:05:32;;;;;;;4.80;3.33;;;;;;;;;;5029280;28;20494;-72
2021/03/31 06:07:58;;;;;;;5.07;3.58;;;;;;;;;;5032363;28;20411;-72
2021/03/31 06:10:26;;;;;;;5.45;3.03;;;;;;;;;;5032620;28;20925;-72
2021/03/31 06:12:58;;;;;;;7.22;3.35;;;;;;;;;;5028468;28;20897;-72
2021/03/31 06:15:29;;;;;;;5.93;3.10;;;;;;;;;;5032122;28;20403;-72
2021/03/31 06:17:56;;;;;;;7.45;3.47;;;;;;;;;;5028647;28;20403;-72
2021/03/31 06:20:38;;;;;;;7.40;3.37;;;;;;;;;;5031171;28;20485;-72
2021/03/31 06:25:56;;;;;;;4.57;3.22;;;;;;;;;;5029771;28;20759;-73
2021/03/31 06:28:29;;;;;;;8.27;3.07;;;;;;;;;;5028989;28;20916;-73
2021/03/31 06:31:14;;;;;;;5.72;3.35;;;;;;;;;;5028521;28;20492;-72
2021/03/31 06:33:40;;;;;;;7.03;3.30;;;;;;;;;;5029952;28;20383;-72
2021/03/31 06:36:08;;;;;;;6.68;3.78;;;;;;;;;;5029651;28;20736;-72
2021/03/31 06:38:35;;;;;;;6.37;3.40;;;;;;;;;;5031883;28;20401;-73
2021/03/31 06:41:12;;;;;;;4.90;3.10;;;;;;;;;;5032219;28;20913;-72
2021/03/31 06:43:49;;;;;;;9.30;3.63;;;;;;;;;;5028626;28;20407;-72
2021/03/31 06:46:26;;;;;;;5.32;2.90;;;;;;;;;;5021045;28;20410;-72
2021/03/31 06:48:53;;;;;;;6.40;3.42;;;;;;;;;;5024975;28;20823;-73
2021/03/31 06:51:25;;;;;;;8.10;3.17;;;;;;;;;;5029117;28;20395;-73
2021/03/31 06:53:52;;;;;;;7.83;3.53;;;;;;;;;;5029754;28;20494;-73
2021/03/31 06:56:26;;;;;;;5.10;2.90;;;;;;;;;;5031616;28;20494;-73
2021/03/31 06:58:56;;;;;;;6.45;3.50;;;;;;;;;;5013467;28;20453;-73
2021/03/31 07:01:24;;;;;;;8.25;2.88;;;;;;;;;;5029698;28;20400;-73
2021/03/31 07:03:50;;;;;;;8.95;3.47;;;;;;;;;;5021173;28;20415;-73
2021/03/31 07:06:18;;;;;;;7.80;3.53;;;;;;;;;;5016248;28;20422;-73
2021/03/31 07:08:44;;;;;;;6.15;3.38;;;;;;;;;;5029490;28;20403;-72
2021/03/31 07:11:10;;;;;;;6.10;3.27;;;;;;;;;;5010694;28;20465;-73
2021/03/31 07:13:38;;;;;;;7.28;3.50;;;;;;;;;;5031468;28;20402;-73
2021/03/31 07:16:05;;;;;;;5.05;3.15;;;;;;;;;;5022171;28;20449;-72
2021/03/31 07:18:32;;;;;;;5.25;3.10;;;;;;;;;;5008570;28;20457;-73
2021/03/31 07:20:59;;;;;;;6.13;3.03;;;;;;;;;;5031695;28;20515;-73
2021/03/31 07:23:27;;;;;;;5.63;2.92;;;;;;;;;;5017437;28;20465;-73
2021/03/31 07:25:53;;;;;;;6.93;3.30;;;;;;;;;;5008597;28;20403;-73
2021/03/31 07:28:22;;;;;;;4.88;3.28;;;;;;;;;;5030906;28;20395;-73
2021/03/31 07:30:49;;;;;;;9.32;3.60;;;;;;;;;;5031341;28;20399;-73
2021/03/31 07:33:18;;;;;;;7.03;3.03;;;;;;;;;;5031033;28;20403;-73
2021/03/31 07:35:45;;;;;;;5.43;3.25;;;14.90;82.00;;;;;;5011997;28;20413;-74
2021/03/31 07:38:13;;;;;;;6.03;3.30;;;;;;;;;;5015855;28;20408;-74
2021/03/31 07:40:40;;;;;;;7.28;3.63;;;;;;;;;;5018396;28;20441;-74
2021/03/31 07:43:08;;;;;;;6.20;3.55;;;;;;;;;;5019806;28;20410;-74
2021/03/31 07:45:37;;;;;;;8.13;3.40;;;;;;;;;;5019610;28;20427;-74
2021/03/31 07:48:05;;;;;;;8.02;3.80;;;;;;;;;;4995602;28;20457;-74
2021/03/31 07:50:32;;;;;;;6.57;3.83;;;;;;;;;;4989943;28;20426;-74
2021/03/31 07:52:59;;;;;;;9.87;4.20;;;;;;;;;;5005193;28;20410;-74
2021/03/31 07:55:29;;;;;;;8.55;3.72;;;;;;;;;;4989539;28;20410;-75
2021/03/31 07:58:10;;;;;;;7.80;3.78;;;;;;;;;;4989508;28;20434;-75
2021/03/31 08:00:52;;;;;;;8.43;3.60;;;;;;;;;;4987927;28;20423;-74
2021/03/31 08:03:52;;;;;;;7.67;3.47;;;;;;;;;;4994735;28;20435;-74
2021/03/31 08:06:22;;;;;;;6.05;3.40;;;;;;;;;;5004941;28;20412;-74
2021/03/31 08:09:06;;;;;;;7.53;4.22;;;;;;;;;;5009599;28;20485;-74
2021/03/31 08:11:47;;;;;;;10.63;4.15;;;;;;;;;;5009619;28;20491;-74
2021/03/31 08:14:13;;;;;;;8.63;4.60;;;;;;;;;;5013099;28;20404;-75
2021/03/31 08:16:41;;;;;;;16.92;7.85;;;;;;;;;;5010764;28;20420;-73
2021/03/31 08:19:08;;;;;;;23.60;9.63;;;;;;;;;;5012249;28;20412;-74
2021/03/31 08:21:36;;;;;;;17.27;9.13;;;;;;;;;;5011455;28;20405;-74
2021/03/31 08:24:05;;;;;;;24.05;13.00;;;;;;;;;;5011531;28;20417;-74
2021/03/31 08:26:34;;;;;;;19.93;12.90;;;;;;;;;;5011873;28;20447;-74
2021/03/31 08:29:01;;;;;;;25.45;13.68;;;;;;;;;;5010673;28;20475;-74
2021/03/31 08:31:28;;;;;;;31.10;17.73;;;;;;;;;;5012267;28;20408;-73
2021/03/31 08:33:54;;;;;;;39.13;22.30;;;;;;;;;;5012224;28;20484;-74
2021/03/31 08:36:21;;;;;;;41.10;23.85;;;19.80;66.80;;;;;;5012157;28;20811;-74
2021/03/31 08:38:52;;;;;;;40.88;22.98;;;19.40;69.50;;;;;;5012910;28;20413;-74
2021/03/31 08:41:20;;;;;;;35.72;22.40;;;19.30;71.40;;;;;;5010647;28;21589;-74
2021/03/31 08:43:48;;;;;;;41.58;24.88;;;19.50;71.40;;;;;;5011112;28;20404;-74
2021/03/31 08:46:26;;;;;;;41.20;25.15;;;19.60;72.30;;;;;;4993623;28;20500;-74
2021/03/31 08:48:53;;;;;;;41.40;24.80;;;19.60;71.70;;;;;;5009316;28;20407;-75
2021/03/31 08:51:20;;;;;;;41.00;25.73;;;;;;;;;;5012961;28;20426;-74
2021/03/31 08:53:46;;;;;;;41.05;25.83;;;;;;;;;;4994074;28;20401;-74
2021/03/31 08:56:17;;;;;;;43.95;27.42;;;;;;;;;;5012012;28;20401;-74
2021/03/31 08:58:43;;;;;;;46.15;27.73;;;;;;;;;;4993968;28;20420;-73
2021/03/31 09:01:09;;;;;;;46.42;27.27;;;;;;;;;;5011336;28;20417;-73
2021/03/31 09:03:36;;;;;;;46.15;26.60;;;;;;;;;;5011968;28;20415;-73
2021/03/31 09:06:03;;;;;;;50.58;29.25;;;;;;;;;;5011164;28;20456;-74
2021/03/31 09:08:30;;;;;;;42.08;25.95;;;;;;;;;;5011418;28;20884;-73
2021/03/31 09:10:58;;;;;;;45.53;28.13;;;19.60;72.70;;;;;;4994257;28;20419;-74
2021/03/31 09:13:30;;;;;;;48.47;27.98;;;20.80;70.10;;;;;;5011206;28;20393;-74
2021/03/31 09:15:58;;;;;;;49.23;30.23;;;20.40;70.00;;;;;;4992979;28;20412;-74
2021/03/31 09:18:24;;;;;;;44.50;26.75;;;20.30;69.90;;;;;;5010883;28;20409;-74
2021/03/31 09:20:50;;;;;;;47.97;28.50;;;20.20;70.50;;;;;;5011109;28;20417;-74
2021/03/31 09:23:21;;;;;;;48.73;28.27;;;20.40;69.60;;;;;;5011335;28;20906;-74
2021/03/31 09:25:59;;;;;;;46.10;27.07;;;20.60;69.90;;;;;;4993835;28;20423;-74
2021/03/31 09:28:25;;;;;;;51.42;29.33;;;;;;;;;;5011254;28;20412;-74
2021/03/31 09:30:56;;;;;;;48.65;27.77;;;20.90;70.90;;;;;;5011068;28;20399;-74
2021/03/31 09:33:33;;;;;;;48.15;26.17;;;21.20;68.50;;;;;;5011604;28;20900;-74
2021/03/31 09:36:15;;;;;;;45.78;25.17;;;21.40;67.60;;;;;;5011430;28;20879;-74
2021/03/31 09:38:41;;;;;;;43.72;25.10;;;21.30;66.50;;;;;;4990768;28;20397;-74
2021/03/31 09:41:08;;;;;;;41.53;23.98;;;21.50;67.90;;;;;;5011194;28;20574;-74
2021/03/31 09:43:34;;;;;;;33.70;20.60;;;20.90;66.00;;;;;;4993718;28;20401;-74
2021/03/31 09:46:02;;;;;;;35.75;22.23;;;21.20;66.50;;;;;;4992714;28;20397;-74
2021/03/31 09:48:28;;;;;;;44.80;25.92;;;21.50;67.10;;;;;;5010930;28;20478;-74
2021/03/31 09:50:55;;;;;;;38.03;22.77;;;;;;;;;;5011401;28;20452;-74
2021/03/31 09:53:25;;;;;;;37.10;23.10;;;;;;;;;;5008590;28;20899;-74
2021/03/31 09:55:51;;;;;;;40.83;23.25;;;;;;;;;;5010995;28;20488;-75
2021/03/31 09:58:23;;;;;;;41.30;22.98;;;21.40;66.20;;;;;;4993114;28;20459;-74
2021/03/31 10:00:49;;;;;;;40.70;23.52;;;21.70;63.90;;;;;;5008690;28;20781;-74
2021/03/31 10:03:17;;;;;;;36.72;22.55;;;21.40;63.90;;;;;;4993454;28;20404;-74
2021/03/31 10:05:43;;;;;;;39.83;23.33;;;21.10;65.50;;;;;;5009618;28;20416;-74
2021/03/31 10:08:20;;;;;;;36.95;23.33;;;21.50;66.20;;;;;;4992908;28;20989;-74
2021/03/31 10:10:48;;;;;;;38.00;21.92;;;21.60;64.70;;;;;;5010347;28;20389;-74
2021/03/31 10:13:16;;;;;;;37.63;22.15;;;21.80;64.50;;;;;;4992017;28;20405;-73
2021/03/31 10:15:43;;;;;;;38.30;24.98;;;;;;;;;;4993001;28;20790;-73
2021/03/31 10:18:11;;;;;;;43.60;25.27;;;;;;;;;;5009776;28;20405;-74
2021/03/31 10:20:45;;;;;;;42.92;26.77;;;;;;;;;;5010133;28;20936;-73
2021/03/31 10:23:21;;;;;;;41.40;25.25;;;;;;;;;;5008401;28;20411;-73
2021/03/31 10:25:47;;;;;;;43.63;24.70;;;;;;;;;;5010503;28;20463;-74
2021/03/31 10:28:28;;;;;;;36.30;23.50;;;;;;;;;;5012632;28;20396;-74
2021/03/31 10:30:55;;;;;;;36.05;21.83;;;;;;;;;;4992037;28;20414;-74
2021/03/31 10:33:21;;;;;;;39.90;22.48;;;;;;;;;;5013515;28;20458;-74
2021/03/31 10:35:53;;;;;;;31.63;20.15;;;;;;;;;;4994139;28;20439;-74
2021/03/31 10:38:28;;;;;;;34.93;20.23;;;22.10;63.80;;;;;;5011553;28;20832;-74
2021/03/31 10:54:25;;;;;;;37.38;19.73;;;;;;;;;;5007391;28;20850;-74
2021/03/31 10:56:55;;;;;;;34.50;19.85;;;;;;;;;;5014613;28;20401;-73
2021/03/31 10:59:21;;;;;;;29.58;17.52;;;;;;;;;;4993807;28;20797;-73
2021/03/31 11:01:47;;;;;;;33.28;18.52;;;;;;;;;;4997578;28;20429;-73
2021/03/31 11:04:14;;;;;;;30.80;17.10;;;;;;;;;;5004571;28;20768;-73
2021/03/31 11:06:40;;;;;;;28.83;16.67;;;;;;;;;;5006481;28;20412;-73
2021/03/31 11:09:07;;;;;;;29.48;16.42;;;;;;;;;;4992462;28;20496;-74
2021/03/31 11:11:33;;;;;;;31.35;17.42;;;;;;;;;;5006669;28;20756;-74
2021/03/31 11:14:00;;;;;;;27.58;14.95;;;;;;;;;;5001896;28;20506;-74
2021/03/31 11:16:26;;;;;;;30.83;17.73;;;22.80;63.00;;;;;;5001873;28;20895;-75
2021/03/31 11:19:03;;;;;;;32.40;17.55;;;23.90;57.00;;;;;;4987973;28;20410;-74
2021/03/31 11:27:00;;;;;;;30.07;16.43;;;23.80;58.70;;;;;;4999621;28;21094;-74
2021/03/31 11:29:26;;;;;;;27.70;16.02;;;23.80;55.80;;;;;;5002400;28;20404;-74
2021/03/31 11:31:52;;;;;;;31.58;17.05;;;23.70;56.80;;;;;;5007322;28;20867;-74
2021/03/31 11:34:19;;;;;;;25.77;15.25;;;23.30;55.80;;;;;;5005462;28;20499;-74
2021/03/31 11:36:45;;;;;;;23.38;14.60;;;23.30;56.50;;;;;;5007467;28;20412;-74
2021/03/31 11:39:11;;;;;;;30.88;16.38;;;23.70;56.80;;;;;;5011609;28;20412;-74
2021/03/31 11:41:38;;;;;;;28.10;17.13;;;;;;;;;;4994171;28;20416;-74
2021/03/31 11:44:05;;;;;;;33.03;19.13;;;;;;;;;;5011991;28;20420;-75
2021/03/31 11:46:31;;;;;;;33.10;18.48;;;;;;;;;;5011100;28;20423;-74
2021/03/31 11:48:57;;;;;;;29.80;17.23;;;;;;;;;;5012065;28;20462;-73
2021/03/31 11:51:23;;;;;;;27.30;16.27;;;23.70;56.30;;;;;;5012335;28;20903;-74
2021/03/31 11:53:49;;;;;;;26.38;16.75;;;24.20;56.00;;;;;;5010821;28;20487;-74
2021/03/31 11:56:15;;;;;;;30.77;19.00;;;24.30;55.70;;;;;;4990331;28;20416;-74
2021/03/31 11:58:42;;;;;;;31.83;18.85;;;23.90;55.30;;;;;;5011489;28;21091;-74
2021/03/31 12:01:08;;;;;;;25.33;17.00;;;23.60;57.00;;;;;;5009119;28;20423;-74
2021/03/31 12:03:34;;;;;;;27.58;17.90;;;24.10;55.60;;;;;;4993329;28;20420;-74
2021/03/31 12:06:00;;;;;;;29.05;18.60;;;24.20;55.40;;;;;;5011389;28;20420;-74
2021/03/31 12:08:27;;;;;;;25.17;16.85;;;24.00;54.90;;;;;;5012458;28;20427;-74
2021/03/31 12:10:53;;;;;;;31.85;19.98;;;;;;;;;;5011829;28;20391;-73
2021/03/31 12:13:19;;;;;;;29.67;18.50;;;;;;;;;;5011891;28;20474;-74
2021/03/31 12:15:46;;;;;;;26.52;17.70;;;;;;;;;;4993817;28;20423;-74
2021/03/31 12:18:12;;;;;;;34.75;19.35;;;;;;;;;;4991508;28;20412;-74
2021/03/31 12:20:39;;;;;;;32.22;20.27;;;;;;;;;;5012742;28;21101;-74
2021/03/31 12:23:05;;;;;;;35.92;20.45;;;;;;;;;;5011015;28;20405;-73
2021/03/31 12:25:33;;;;;;;30.80;19.02;;;;;;;;;;5011076;28;20888;-74
2021/03/31 12:28:00;;;;;;;29.88;19.35;;;;;;;;;;5011869;28;21148;-74
2021/03/31 12:30:27;;;;;;;27.80;20.27;;;;;;;;;;5011698;28;20509;-73
2021/03/31 12:32:54;;;;;;;31.25;20.10;;;;;;;;;;5011288;28;20417;-73
2021/03/31 12:35:21;;;;;;;28.20;19.27;;;;;;;;;;5012388;28;20401;-73
2021/03/31 12:37:47;;;;;;;28.80;18.67;;;;;;;;;;5010074;28;20791;-73
2021/03/31 12:40:14;;;;;;;25.88;18.63;;;;;;;;;;5011832;28;20436;-74
2021/03/31 12:42:41;;;;;;;30.98;19.70;;;;;;;;;;4995277;28;20535;-74
2021/03/31 12:45:08;;;;;;;29.88;19.02;;;;;;;;;;5010599;28;20455;-74
2021/03/31 12:47:34;;;;;;;33.75;21.20;;;;;;;;;;5013200;28;20397;-74
2021/03/31 12:50:02;;;;;;;31.85;20.75;;;;;;;;;;4993462;28;20839;-74
2021/03/31 12:52:32;;;;;;;31.15;21.23;;;;;;;;;;4995065;28;20524;-74
2021/03/31 12:55:04;;;;;;;33.80;21.60;;;;;;;;;;4994293;28;20471;-74
2021/03/31 12:57:30;;;;;;;33.07;23.30;;;;;;;;;;5012545;28;20412;-74
2021/03/31 12:59:58;;;;;;;34.42;20.27;;;;;;;;;;5011108;28;20426;-74
2021/03/31 13:02:24;;;;;;;30.40;21.45;;;;;;;;;;5012251;28;20393;-74
2021/03/31 13:04:52;;;;;;;30.13;20.20;;;;;;;;;;5011459;28;20448;-73
2021/03/31 13:07:20;;;;;;;25.47;18.27;;;;;;;;;;5012039;28;20874;-74
2021/03/31 13:09:47;;;;;;;26.85;19.23;;;;;;;;;;5007607;28;20424;-74
2021/03/31 13:12:57;;;;;;;28.53;20.10;;;;;;;;;;4994343;28;20416;-74
2021/03/31 13:23:31;;;;;;;25.23;17.13;;;;;;;;;;5009794;28;20412;-74
2021/03/31 13:26:04;;;;;;;19.08;13.88;;;;;;;;;;4994522;28;20415;-74
2021/03/31 13:31:33;;;;;;;26.75;17.90;;;26.20;49.80;;;;;;5009168;28;20393;-75
2021/03/31 13:34:11;;;;;;;26.75;17.88;;;;;;;;;;4993466;28;20416;-75
2021/03/31 13:36:45;;;;;;;26.75;18.60;;;;;;;;;;4994274;28;20395;-74
2021/03/31 13:39:20;;;;;;;25.83;18.95;;;25.60;51.40;;;;;;5011124;28;20432;-75
2021/03/31 13:41:46;;;;;;;23.15;17.00;;;;;;;;;;5010283;28;20484;-74
2021/03/31 13:44:12;;;;;;;28.83;17.80;;;;;;;;;;5011538;28;20450;-74
2021/03/31 13:46:46;;;;;;;25.00;16.08;;;;;;;;;;5010717;28;20397;-74
2021/03/31 13:49:19;;;;;;;21.50;13.70;;;;;;;;;;5005905;28;20964;-74
2021/03/31 13:54:21;;;;;;;24.17;16.80;;;;;;;;;;5005917;28;20918;-75
2021/03/31 13:56:49;;;;;;;27.05;18.23;;;;;;;;;;5010668;28;20432;-75
2021/03/31 13:59:15;;;;;;;22.98;16.15;;;;;;;;;;5004680;28;20492;-75
2021/03/31 14:01:41;;;;;;;25.33;17.20;;;;;;;;;;5010255;28;20773;-76
2021/03/31 14:04:07;;;;;;;25.40;16.80;;;;;;;;;;4993164;28;20416;-75
2021/03/31 14:06:33;;;;;;;26.50;16.45;;;;;;;;;;4992524;28;20420;-75
2021/03/31 14:09:00;;;;;;;25.95;17.40;;;;;;;;;;5010885;28;20401;-75
2021/03/31 14:11:27;;;;;;;24.70;16.85;;;24.90;51.00;;;;;;4992008;28;20423;-74
2021/03/31 14:13:52;;;;;;;27.77;17.38;;;25.50;50.10;;;;;;5010302;28;20455;-75
2021/03/31 14:16:19;;;;;;;25.63;17.33;;;25.90;50.50;;;;;;5010375;28;20897;-75
2021/03/31 14:18:46;;;;;;;27.90;18.17;;;25.70;49.50;;;;;;5010294;28;20403;-74
2021/03/31 14:21:12;;;;;;;23.17;15.97;;;;;;;;;;4992835;28;20936;-74
2021/03/31 14:23:38;;;;;;;26.13;17.05;;;;;;;;;;5005318;28;20407;-74
2021/03/31 14:26:05;;;;;;;25.75;17.45;;;;;;;;;;4992220;28;20404;-74
2021/03/31 14:28:32;;;;;;;28.58;18.33;;;;;;;;;;5010738;28;20407;-74
2021/03/31 14:30:58;;;;;;;24.95;15.50;;;;;;;;;;4991754;28;20409;-73
2021/03/31 14:33:24;;;;;;;26.17;15.82;;;;;;;;;;5017179;28;20405;-74
2021/03/31 14:35:51;;;;;;;29.70;18.85;;;;;;;;;;5010678;28;20415;-74
2021/03/31 14:38:17;;;;;;;27.83;17.45;;;;;;;;;;4991872;28;20465;-74
2021/03/31 14:40:44;;;;;;;27.08;18.10;;;;;;;;;;5009582;28;20432;-74
2021/03/31 14:43:10;;;;;;;26.48;17.25;;;26.00;48.80;;;;;;5007837;28;20469;-74
2021/03/31 14:45:37;;;;;;;24.13;14.63;;;25.50;48.90;;;;;;5010418;28;20764;-74
2021/03/31 14:48:05;;;;;;;25.60;15.93;;;25.60;49.40;;;;;;5009815;28;20904;-74
2021/03/31 14:50:33;;;;;;;26.95;18.45;;;;;;;;;;5009478;28;20467;-75
2021/03/31 15:00:56;;;;;;;25.45;16.42;;;;;;;;;;5009707;28;21071;-75
2021/03/31 15:03:22;;;;;;;25.38;16.40;;;26.20;48.00;;;;;;5008930;28;20416;-75